Time;durP1;ratioP1;P1;durP2;ratioP2;P2;SDS_P1;SDS_P2;PMS_P1;PMS_P2;Temp;Humidity;BMP_temperature;BMP_pressure;BME280_temperature;BME280_humidity;BME280_pressure;Samples;Min_cycle;Max_cycle;Signal;HPM_P1;HPM_P2
2024/01/05 00:01:57;;;;;;;2.80;1.20;;;17.60;68.40;;;;;;5056313;28;45253;-52
2024/01/05 00:04:24;;;;;;;3.63;0.88;;;17.60;68.50;;;;;;5059565;28;45308;-52
2024/01/05 00:06:51;;;;;;;3.58;1.05;;;17.60;68.50;;;;;;5057614;28;45107;-52
2024/01/05 00:09:18;;;;;;;3.03;1.20;;;17.60;68.50;;;;;;5059210;28;46345;-52
2024/01/05 00:11:47;;;;;;;4.03;1.10;;;17.60;68.50;;;;;;5058604;28;45236;-52
2024/01/05 00:14:13;;;;;;;2.30;1.05;;;17.60;68.50;;;;;;5057733;28;45216;-52
2024/01/05 00:16:41;;;;;;;4.00;1.38;;;17.70;68.40;;;;;;5056398;28;45090;-52
2024/01/05 00:19:08;;;;;;;4.95;1.00;;;17.70;68.40;;;;;;5059363;28;45182;-52
2024/01/05 00:21:35;;;;;;;5.72;1.52;;;17.70;68.20;;;;;;5057911;28;45209;-52
2024/01/05 00:24:02;;;;;;;1.88;0.90;;;17.70;68.30;;;;;;5056248;28;45292;-52
2024/01/05 00:26:28;;;;;;;2.40;1.00;;;17.70;68.20;;;;;;5059568;28;45171;-52
2024/01/05 00:28:55;;;;;;;2.88;0.90;;;17.70;68.10;;;;;;5059259;28;47923;-53
2024/01/05 00:31:22;;;;;;;2.65;0.98;;;17.70;68.10;;;;;;5058485;28;45811;-52
2024/01/05 00:33:50;;;;;;;4.07;1.23;;;17.70;68.20;;;;;;5057565;28;45165;-52
2024/01/05 00:36:17;;;;;;;3.10;1.05;;;17.70;68.30;;;;;;5059885;28;45327;-52
2024/01/05 00:38:47;;;;;;;1.73;0.93;;;17.70;68.20;;;;;;5058330;28;46440;-52
2024/01/05 00:41:14;;;;;;;2.03;0.95;;;17.60;68.30;;;;;;5058487;28;45223;-52
2024/01/05 00:43:41;;;;;;;3.00;1.17;;;17.60;68.30;;;;;;5058378;28;45198;-52
2024/01/05 00:46:08;;;;;;;1.73;1.20;;;17.60;68.30;;;;;;5057571;28;45475;-52
2024/01/05 00:48:34;;;;;;;5.30;1.38;;;17.60;68.30;;;;;;5058754;28;46304;-52
2024/01/05 00:51:03;;;;;;;3.10;1.13;;;17.60;68.20;;;;;;5059694;28;45177;-52
2024/01/05 00:53:29;;;;;;;3.28;1.33;;;17.60;68.30;;;;;;5057336;28;45364;-52
2024/01/05 00:55:56;;;;;;;3.72;1.20;;;17.60;68.20;;;;;;5056653;28;45294;-52
2024/01/05 00:58:23;;;;;;;2.75;1.20;;;17.70;68.30;;;;;;5058367;28;47013;-52
2024/01/05 01:00:49;;;;;;;4.93;1.38;;;17.70;68.20;;;;;;5056642;28;45129;-52
2024/01/05 01:03:16;;;;;;;3.90;1.42;;;17.70;68.20;;;;;;5057341;28;45233;-52
2024/01/05 01:05:44;;;;;;;2.63;1.00;;;17.70;68.10;;;;;;5058453;28;45573;-52
2024/01/05 01:08:13;;;;;;;3.25;1.00;;;17.70;68.10;;;;;;5057074;28;45424;-52
2024/01/05 01:10:40;;;;;;;2.92;1.20;;;17.70;68.00;;;;;;5058771;28;45269;-52
2024/01/05 01:13:07;;;;;;;4.78;1.10;;;17.70;68.00;;;;;;5056282;28;45242;-52
2024/01/05 01:15:34;;;;;;;2.85;1.40;;;17.70;68.20;;;;;;5057868;28;45299;-52
2024/01/05 01:18:00;;;;;;;3.33;1.10;;;17.70;68.20;;;;;;5058305;28;45258;-52
2024/01/05 01:20:27;;;;;;;3.33;0.90;;;17.70;68.30;;;;;;5057771;28;45375;-52
2024/01/05 01:22:54;;;;;;;3.10;0.90;;;17.70;68.30;;;;;;5057579;28;45244;-52
2024/01/05 01:25:22;;;;;;;4.93;1.20;;;17.70;68.30;;;;;;5056773;28;45196;-51
2024/01/05 01:27:49;;;;;;;1.75;0.90;;;17.70;68.30;;;;;;5055275;28;46349;-52
2024/01/05 01:30:15;;;;;;;2.75;1.15;;;17.70;68.30;;;;;;5056261;28;44701;-52
2024/01/05 01:32:42;;;;;;;2.65;0.85;;;17.70;68.30;;;;;;5058208;28;45220;-52
2024/01/05 01:35:09;;;;;;;3.53;1.30;;;17.60;68.20;;;;;;5058647;28;45189;-52
2024/01/05 01:37:36;;;;;;;4.32;1.20;;;17.70;67.50;;;;;;5056390;28;46419;-52
2024/01/05 01:40:04;;;;;;;2.38;1.27;;;17.70;66.40;;;;;;5056638;28;45420;-52
2024/01/05 01:42:33;;;;;;;3.53;1.13;;;17.70;65.70;;;;;;5056558;28;45328;-52
2024/01/05 01:45:00;;;;;;;4.00;1.17;;;17.70;65.40;;;;;;5054457;28;45226;-52
2024/01/05 01:47:27;;;;;;;2.67;1.20;;;17.70;65.40;;;;;;5057379;28;46569;-51
2024/01/05 01:49:54;;;;;;;3.47;1.10;;;17.70;65.20;;;;;;5057554;28;45221;-52
2024/01/05 01:52:21;;;;;;;4.75;1.40;;;17.70;65.50;;;;;;5057210;28;45616;-52
2024/01/05 01:54:48;;;;;;;3.15;1.15;;;17.70;65.00;;;;;;5057509;28;45580;-52
2024/01/05 01:57:17;;;;;;;3.00;0.80;;;17.60;64.80;;;;;;5057056;28;47264;-52
2024/01/05 01:59:46;;;;;;;4.82;1.17;;;17.60;64.70;;;;;;5056129;28;45785;-52
2024/01/05 02:02:13;;;;;;;5.50;1.40;;;17.60;65.60;;;;;;5056362;28;45316;-52
2024/01/05 02:04:41;;;;;;;4.25;1.33;;;17.60;64.20;;;;;;5057265;28;45458;-52
2024/01/05 02:07:08;;;;;;;3.88;1.17;;;17.60;64.00;;;;;;5055535;28;45398;-52
2024/01/05 02:09:36;;;;;;;1.58;0.85;;;17.60;63.90;;;;;;5057788;28;45323;-52
2024/01/05 02:12:03;;;;;;;3.92;1.50;;;17.60;63.80;;;;;;5057068;28;45333;-52
2024/01/05 02:14:30;;;;;;;4.15;1.20;;;17.60;63.80;;;;;;5056817;28;45181;-52
2024/01/05 02:16:59;;;;;;;3.95;1.20;;;17.60;63.50;;;;;;5057361;28;45178;-52
2024/01/05 02:19:26;;;;;;;3.60;1.25;;;17.60;63.80;;;;;;5056941;28;45165;-52
2024/01/05 02:21:56;;;;;;;2.47;0.98;;;17.60;63.90;;;;;;5054624;28;45513;-52
2024/01/05 02:24:24;;;;;;;3.30;1.00;;;17.60;63.20;;;;;;5056391;28;45173;-52
2024/01/05 02:26:52;;;;;;;2.25;0.95;;;17.60;63.40;;;;;;5055430;28;47467;-52
2024/01/05 02:29:21;;;;;;;2.28;0.82;;;17.60;63.30;;;;;;5056449;28;45351;-52
2024/01/05 02:31:49;;;;;;;4.32;1.10;;;17.60;63.30;;;;;;5057626;28;45243;-52
2024/01/05 02:34:16;;;;;;;3.95;1.20;;;17.60;63.00;;;;;;5056083;28;45455;-52
2024/01/05 02:36:42;;;;;;;3.53;1.02;;;17.60;62.80;;;;;;5055851;28;45375;-52
2024/01/05 02:39:09;;;;;;;3.10;1.10;;;17.60;64.00;;;;;;5058612;28;45150;-53
2024/01/05 02:41:37;;;;;;;4.90;1.15;;;17.60;62.90;;;;;;5059990;28;45192;-52
2024/01/05 02:44:04;;;;;;;2.70;0.90;;;17.60;62.70;;;;;;5061685;28;45486;-52
2024/01/05 02:46:33;;;;;;;2.35;0.80;;;17.60;62.60;;;;;;5060341;28;45447;-52
2024/01/05 02:49:00;;;;;;;5.07;1.20;;;17.60;62.60;;;;;;5059838;28;45173;-52
2024/01/05 02:51:27;;;;;;;3.08;1.15;;;17.60;62.50;;;;;;5058860;28;45479;-52
2024/01/05 02:53:54;;;;;;;6.05;1.33;;;17.60;62.50;;;;;;5061772;28;45621;-52
2024/01/05 02:56:22;;;;;;;2.45;0.93;;;17.60;62.40;;;;;;5056672;28;45379;-52
2024/01/05 02:58:50;;;;;;;4.70;1.33;;;17.60;62.40;;;;;;5059367;28;45232;-52
2024/01/05 03:01:17;;;;;;;3.50;0.90;;;17.60;62.50;;;;;;5057631;28;45576;-52
2024/01/05 03:03:46;;;;;;;2.50;1.10;;;17.60;62.60;;;;;;5061160;28;45275;-52
2024/01/05 03:06:15;;;;;;;3.15;1.25;;;17.60;62.50;;;;;;5060118;28;48031;-52
2024/01/05 03:08:41;;;;;;;5.13;1.25;;;17.60;62.10;;;;;;5060986;28;45166;-52
2024/01/05 03:11:08;;;;;;;2.67;0.90;;;17.60;62.20;;;;;;5057987;28;45316;-52
2024/01/05 03:13:35;;;;;;;4.28;1.10;;;17.60;61.20;;;;;;5059299;28;45245;-52
2024/01/05 03:16:03;;;;;;;3.17;1.13;;;17.60;62.10;;;;;;5060426;28;46127;-52
2024/01/05 03:18:30;;;;;;;3.03;0.95;;;17.60;61.90;;;;;;5060060;28;45323;-53
2024/01/05 03:20:57;;;;;;;3.63;1.52;;;17.60;61.70;;;;;;5059140;28;45170;-53
2024/01/05 03:23:23;;;;;;;2.65;1.05;;;17.60;61.70;;;;;;5058016;28;45131;-52
2024/01/05 03:25:50;;;;;;;4.45;1.10;;;17.60;61.50;;;;;;5057636;28;45201;-53
2024/01/05 03:28:18;;;;;;;3.08;1.35;;;17.60;61.70;;;;;;5060575;28;45354;-53
2024/01/05 03:30:44;;;;;;;4.32;1.15;;;17.60;61.60;;;;;;5059334;28;45630;-53
2024/01/05 03:33:13;;;;;;;4.57;1.40;;;17.50;61.60;;;;;;5059646;28;45277;-52
2024/01/05 03:35:41;;;;;;;3.67;1.00;;;17.50;61.30;;;;;;5060471;28;45265;-53
2024/01/05 03:38:08;;;;;;;3.10;1.05;;;17.50;61.40;;;;;;5060806;28;45547;-53
2024/01/05 03:40:34;;;;;;;2.88;1.05;;;17.50;61.30;;;;;;5060680;28;45308;-53
2024/01/05 03:43:01;;;;;;;3.25;1.00;;;17.50;61.20;;;;;;5057342;28;45162;-53
2024/01/05 03:45:28;;;;;;;4.35;1.05;;;17.50;61.20;;;;;;5060608;28;45177;-52
2024/01/05 03:47:54;;;;;;;2.90;1.10;;;17.50;61.20;;;;;;5056096;28;45190;-53
2024/01/05 03:50:23;;;;;;;3.17;0.93;;;17.50;61.30;;;;;;5058707;28;45228;-53
2024/01/05 03:52:49;;;;;;;4.65;1.20;;;17.50;61.20;;;;;;5060193;28;45353;-52
2024/01/05 03:55:16;;;;;;;5.13;1.40;;;17.50;60.90;;;;;;5058487;28;46241;-53
2024/01/05 03:57:43;;;;;;;4.25;1.08;;;17.60;61.00;;;;;;5058482;28;45164;-53
2024/01/05 04:00:11;;;;;;;2.78;1.00;;;17.50;60.80;;;;;;5057896;28;45202;-53
2024/01/05 04:02:37;;;;;;;4.40;1.27;;;17.50;60.50;;;;;;5058504;28;45531;-53
2024/01/05 04:05:05;;;;;;;5.53;1.27;;;17.50;60.30;;;;;;5054976;28;45425;-53
2024/01/05 04:07:33;;;;;;;5.47;1.08;;;17.50;60.60;;;;;;5059205;28;45423;-53
2024/01/05 04:10:00;;;;;;;2.65;0.93;;;17.50;60.70;;;;;;5060328;28;45247;-53
2024/01/05 04:12:27;;;;;;;4.63;1.17;;;17.50;60.50;;;;;;5056821;28;45162;-53
2024/01/05 04:14:54;;;;;;;3.72;1.00;;;17.50;60.20;;;;;;5059172;28;48899;-53
2024/01/05 04:17:21;;;;;;;2.58;0.93;;;17.50;60.10;;;;;;5057148;28;45297;-53
2024/01/05 04:19:48;;;;;;;4.05;0.95;;;17.50;60.20;;;;;;5056745;28;45381;-53
2024/01/05 04:22:15;;;;;;;2.00;0.80;;;17.50;60.30;;;;;;5058059;28;45363;-53
2024/01/05 04:24:43;;;;;;;1.88;0.70;;;17.50;60.20;;;;;;5057975;28;47014;-53
2024/01/05 04:27:09;;;;;;;2.78;1.05;;;17.50;60.20;;;;;;5055540;28;45162;-53
2024/01/05 04:29:38;;;;;;;3.10;0.90;;;17.50;60.10;;;;;;5056869;28;45217;-53
2024/01/05 04:32:05;;;;;;;5.70;1.00;;;17.50;60.10;;;;;;5058881;28;45399;-53
2024/01/05 04:34:32;;;;;;;3.10;0.90;;;17.50;60.40;;;;;;5056252;28;45261;-53
2024/01/05 04:36:59;;;;;;;3.83;0.90;;;17.50;60.40;;;;;;5058463;28;45223;-53
2024/01/05 04:39:26;;;;;;;3.08;1.00;;;17.50;60.20;;;;;;5056059;28;45414;-53
2024/01/05 04:41:54;;;;;;;3.35;1.13;;;17.50;60.20;;;;;;5058081;28;45202;-53
2024/01/05 04:44:20;;;;;;;2.53;0.88;;;17.50;61.20;;;;;;5057993;28;45178;-53
2024/01/05 04:46:47;;;;;;;4.65;0.95;;;17.50;60.20;;;;;;5059515;28;45162;-53
2024/01/05 04:49:14;;;;;;;5.03;1.17;;;17.50;60.10;;;;;;5056896;28;45289;-53
2024/01/05 04:51:41;;;;;;;3.15;0.98;;;17.50;60.10;;;;;;5058862;28;45095;-53
2024/01/05 04:54:07;;;;;;;2.47;0.93;;;17.50;60.20;;;;;;5055400;28;46428;-53
2024/01/05 04:56:34;;;;;;;4.30;1.30;;;17.50;60.30;;;;;;5056912;28;45374;-53
2024/01/05 04:59:02;;;;;;;1.63;0.70;;;17.50;60.00;;;;;;5055644;28;45250;-53
2024/01/05 05:01:29;;;;;;;3.00;1.15;;;17.50;60.10;;;;;;5057071;28;45145;-53
2024/01/05 05:03:56;;;;;;;3.13;0.70;;;17.50;60.30;;;;;;5054646;28;45323;-53
2024/01/05 05:06:22;;;;;;;4.28;1.13;;;17.50;60.10;;;;;;5057311;28;45122;-53
2024/01/05 05:08:49;;;;;;;2.38;1.08;;;17.40;60.50;;;;;;5055805;28;45374;-53
2024/01/05 05:11:16;;;;;;;3.70;1.05;;;17.40;60.50;;;;;;5057523;28;45659;-53
2024/01/05 05:13:43;;;;;;;1.55;0.70;;;17.40;60.50;;;;;;5054439;28;46479;-53
2024/01/05 05:16:11;;;;;;;2.10;0.98;;;17.40;60.60;;;;;;5056824;28;44699;-53
2024/01/05 05:18:38;;;;;;;2.60;0.88;;;17.40;60.70;;;;;;5058541;28;45336;-53
2024/01/05 05:21:05;;;;;;;2.58;0.90;;;17.40;60.60;;;;;;5055685;28;45180;-53
2024/01/05 05:23:32;;;;;;;2.60;0.88;;;17.40;63.00;;;;;;5052263;28;47200;-53
2024/01/05 05:25:59;;;;;;;4.63;1.13;;;17.40;62.30;;;;;;5053890;28;45151;-53
2024/01/05 05:28:26;;;;;;;2.80;0.95;;;17.40;61.30;;;;;;5057814;28;45170;-53
2024/01/05 05:30:52;;;;;;;3.47;1.00;;;17.40;61.00;;;;;;5056626;28;45878;-53
2024/01/05 05:33:21;;;;;;;2.45;0.80;;;17.30;60.50;;;;;;5052865;28;45454;-53
2024/01/05 05:35:48;;;;;;;4.65;1.17;;;17.30;60.30;;;;;;5056626;28;45186;-53
2024/01/05 05:38:15;;;;;;;4.65;1.10;;;17.30;60.10;;;;;;5058304;28;44664;-53
2024/01/05 05:40:42;;;;;;;2.83;0.98;;;17.30;60.00;;;;;;5056791;28;45265;-53
2024/01/05 05:43:08;;;;;;;3.17;0.90;;;17.30;60.10;;;;;;5057634;28;46554;-53
2024/01/05 05:45:35;;;;;;;3.55;0.90;;;17.30;60.30;;;;;;5057513;28;45302;-53
2024/01/05 05:48:02;;;;;;;2.55;0.88;;;17.30;60.00;;;;;;5058914;28;45226;-53
2024/01/05 05:50:30;;;;;;;2.63;0.90;;;17.30;60.30;;;;;;5057790;28;45341;-53
2024/01/05 05:52:57;;;;;;;3.50;1.05;;;17.30;60.10;;;;;;5057057;28;46504;-53
2024/01/05 05:55:23;;;;;;;3.00;1.10;;;17.30;60.10;;;;;;5056637;28;45222;-53
2024/01/05 05:57:50;;;;;;;2.78;0.98;;;17.30;60.50;;;;;;5056703;28;44661;-53
2024/01/05 06:00:17;;;;;;;3.28;0.88;;;17.30;60.90;;;;;;5056876;28;45316;-53
2024/01/05 06:02:44;;;;;;;3.05;1.13;;;17.30;61.20;;;;;;5056477;28;45180;-53
2024/01/05 06:05:11;;;;;;;4.32;1.00;;;17.40;61.50;;;;;;5056514;28;45175;-53
2024/01/05 06:07:40;;;;;;;1.88;0.70;;;17.40;61.70;;;;;;5055378;28;45230;-53
2024/01/05 06:10:08;;;;;;;1.60;0.68;;;17.40;62.00;;;;;;5057056;28;44718;-53
2024/01/05 06:12:35;;;;;;;2.00;0.93;;;17.40;62.00;;;;;;5055199;28;46481;-53
2024/01/05 06:15:03;;;;;;;5.35;0.90;;;17.40;62.20;;;;;;5058062;28;45138;-53
2024/01/05 06:17:30;;;;;;;1.23;0.60;;;17.40;62.20;;;;;;5057212;28;45158;-53
2024/01/05 06:19:57;;;;;;;2.15;0.80;;;17.50;62.40;;;;;;5057539;28;45388;-53
2024/01/05 06:22:23;;;;;;;3.22;0.80;;;17.50;62.50;;;;;;5057343;28;46102;-53
2024/01/05 06:24:51;;;;;;;1.42;0.70;;;17.50;62.50;;;;;;5054259;28;45286;-53
2024/01/05 06:27:18;;;;;;;1.45;0.68;;;17.50;62.60;;;;;;5057594;28;45172;-53
2024/01/05 06:29:45;;;;;;;2.53;0.90;;;17.50;62.80;;;;;;5057258;28;45542;-53
2024/01/05 06:32:12;;;;;;;2.33;0.63;;;17.50;62.70;;;;;;5057660;28;46164;-53
2024/01/05 06:34:38;;;;;;;2.38;1.10;;;17.50;62.80;;;;;;5058157;28;45405;-53
2024/01/05 06:37:05;;;;;;;2.72;1.00;;;17.50;62.70;;;;;;5057268;28;45425;-53
2024/01/05 06:39:32;;;;;;;2.80;0.90;;;17.50;62.70;;;;;;5057962;28;45142;-53
2024/01/05 06:42:00;;;;;;;2.40;0.80;;;17.50;62.80;;;;;;5057257;28;47450;-53
2024/01/05 06:44:27;;;;;;;1.27;0.68;;;17.50;62.90;;;;;;5054743;28;45494;-53
2024/01/05 06:46:53;;;;;;;4.32;0.98;;;17.50;63.10;;;;;;5058328;28;45130;-53
2024/01/05 06:49:20;;;;;;;2.15;0.65;;;17.50;63.00;;;;;;5058084;28;45289;-53
2024/01/05 06:51:47;;;;;;;4.53;1.00;;;17.50;63.00;;;;;;5054682;28;47111;-53
2024/01/05 06:54:14;;;;;;;2.58;0.80;;;17.50;62.90;;;;;;5056022;28;45342;-53
2024/01/05 06:56:42;;;;;;;1.33;0.52;;;17.50;62.80;;;;;;5056137;28;45329;-53
2024/01/05 06:59:10;;;;;;;2.70;0.80;;;17.50;62.70;;;;;;5057499;28;45193;-53
2024/01/05 07:01:37;;;;;;;1.38;0.50;;;17.60;62.80;;;;;;5055391;28;46188;-53
2024/01/05 07:04:07;;;;;;;2.58;0.73;;;17.50;62.80;;;;;;5053996;28;45249;-53
2024/01/05 07:06:34;;;;;;;1.55;0.40;;;17.50;62.80;;;;;;5054562;28;45241;-53
2024/01/05 07:09:01;;;;;;;3.22;1.00;;;17.50;62.70;;;;;;5053953;28;45210;-53
2024/01/05 07:11:28;;;;;;;1.25;0.60;;;17.60;62.70;;;;;;5055292;28;47024;-53
2024/01/05 07:13:55;;;;;;;1.20;0.65;;;17.60;62.70;;;;;;5055488;28;45205;-52
2024/01/05 07:16:23;;;;;;;2.25;0.70;;;17.60;62.60;;;;;;5056876;28;45327;-53
2024/01/05 07:18:50;;;;;;;1.25;0.45;;;17.60;62.60;;;;;;5057803;28;45277;-53
2024/01/05 07:21:17;;;;;;;1.75;0.50;;;17.60;62.60;;;;;;5054625;28;47491;-53
2024/01/05 07:23:45;;;;;;;1.13;0.40;;;17.60;62.50;;;;;;5054855;28;45316;-53
2024/01/05 07:26:11;;;;;;;3.17;0.82;;;17.60;62.60;;;;;;5060897;28;45170;-53
2024/01/05 07:28:38;;;;;;;0.47;0.38;;;17.60;62.60;;;;;;5060070;28;45756;-53
2024/01/05 07:31:06;;;;;;;1.23;0.60;;;17.60;62.70;;;;;;5059019;28;45275;-53
2024/01/05 07:33:34;;;;;;;2.45;0.85;;;17.60;62.70;;;;;;5058813;28;45284;-53
2024/01/05 07:36:04;;;;;;;3.03;0.75;;;17.60;62.70;;;;;;5059975;28;45183;-53
2024/01/05 07:38:33;;;;;;;0.98;0.45;;;17.60;62.70;;;;;;5059664;28;45292;-52
2024/01/05 07:40:59;;;;;;;0.90;0.47;;;17.60;62.90;;;;;;5059996;28;46720;-53
2024/01/05 07:43:27;;;;;;;1.92;0.47;;;17.60;63.00;;;;;;5060661;28;45150;-53
2024/01/05 07:45:54;;;;;;;1.63;0.60;;;17.60;62.90;;;;;;5060495;28;45338;-53
2024/01/05 07:48:21;;;;;;;0.80;0.55;;;17.60;62.90;;;;;;5058084;28;45326;-53
2024/01/05 07:50:49;;;;;;;1.50;0.50;;;17.60;64.00;;;;;;5060618;28;46457;-53
2024/01/05 07:53:16;;;;;;;1.50;0.60;;;17.60;63.00;;;;;;5057125;28;45155;-53
2024/01/05 07:55:43;;;;;;;1.00;0.50;;;17.60;62.90;;;;;;5059107;28;45268;-53
2024/01/05 07:58:10;;;;;;;2.35;0.82;;;17.60;62.80;;;;;;5060346;28;45177;-53
2024/01/05 08:00:37;;;;;;;0.95;0.50;;;17.70;62.80;;;;;;5058882;28;46223;-52
2024/01/05 08:03:05;;;;;;;1.05;0.50;;;17.60;62.80;;;;;;5057548;28;45145;-53
2024/01/05 08:05:32;;;;;;;1.75;0.50;;;17.60;62.70;;;;;;5058403;28;45323;-52
2024/01/05 08:08:00;;;;;;;2.42;0.55;;;17.60;62.70;;;;;;5059956;28;45503;-53
2024/01/05 08:10:27;;;;;;;1.77;0.60;;;17.60;62.80;;;;;;5059046;28;47404;-53
2024/01/05 08:12:54;;;;;;;0.88;0.55;;;17.60;62.80;;;;;;5055870;28;45147;-52
2024/01/05 08:15:21;;;;;;;1.13;0.40;;;17.60;62.70;;;;;;5056965;28;45106;-53
2024/01/05 08:17:47;;;;;;;2.28;0.60;;;17.60;62.80;;;;;;5057741;28;45149;-53
2024/01/05 08:20:15;;;;;;;2.22;0.50;;;17.60;62.90;;;;;;5058964;28;47112;-53
2024/01/05 08:22:41;;;;;;;1.17;0.60;;;17.50;63.00;;;;;;5056856;28;45712;-53
2024/01/05 08:25:10;;;;;;;0.88;0.43;;;17.50;62.80;;;;;;5056181;28;45196;-52
2024/01/05 08:27:36;;;;;;;0.93;0.40;;;17.50;63.00;;;;;;5059997;28;45183;-52
2024/01/05 08:30:04;;;;;;;0.88;0.38;;;17.50;62.90;;;;;;5057138;28;46044;-53
2024/01/05 08:32:31;;;;;;;1.05;0.45;;;17.60;64.10;;;;;;5058576;28;45051;-52
2024/01/05 08:34:57;;;;;;;1.33;0.50;;;17.50;62.90;;;;;;5059162;28;45626;-52
2024/01/05 08:37:24;;;;;;;2.22;0.35;;;17.50;63.00;;;;;;5055688;28;45200;-52
2024/01/05 08:39:51;;;;;;;0.73;0.30;;;17.60;63.00;;;;;;5057733;28;45491;-52
2024/01/05 08:42:19;;;;;;;1.05;0.30;;;17.60;62.90;;;;;;5059641;28;45150;-52
2024/01/05 08:44:46;;;;;;;0.98;0.50;;;17.60;62.90;;;;;;5057652;28;45247;-52
2024/01/05 08:47:13;;;;;;;1.10;0.40;;;17.60;62.80;;;;;;5056650;28;45162;-53
2024/01/05 08:49:40;;;;;;;3.65;0.40;;;17.60;62.60;;;;;;5057916;28;45209;-53
2024/01/05 08:52:07;;;;;;;0.75;0.30;;;17.60;62.70;;;;;;5058019;28;46023;-52
2024/01/05 08:54:34;;;;;;;0.52;0.38;;;17.60;62.90;;;;;;5057070;28;45170;-53
2024/01/05 08:57:01;;;;;;;1.10;0.47;;;17.50;62.80;;;;;;5055972;28;45304;-53
2024/01/05 08:59:29;;;;;;;2.67;0.38;;;17.60;62.50;;;;;;5054822;28;47266;-53
2024/01/05 09:01:56;;;;;;;1.48;0.30;;;17.50;62.40;;;;;;5055432;28;45613;-53
2024/01/05 09:04:22;;;;;;;1.10;0.40;;;17.60;62.30;;;;;;5056910;28;46043;-53
2024/01/05 09:06:49;;;;;;;0.63;0.25;;;17.50;62.30;;;;;;5057064;28;45170;-53
2024/01/05 09:09:16;;;;;;;1.23;0.45;;;17.50;62.50;;;;;;5055354;28;45282;-53
2024/01/05 09:11:42;;;;;;;1.02;0.30;;;17.50;62.60;;;;;;5054061;28;45237;-53
2024/01/05 09:14:10;;;;;;;1.15;0.30;;;17.60;62.40;;;;;;5055836;28;45431;-53
2024/01/05 09:16:38;;;;;;;0.40;0.30;;;17.60;62.10;;;;;;5053501;28;45778;-53
2024/01/05 09:19:05;;;;;;;0.30;0.20;;;17.60;62.10;;;;;;5058390;28;45209;-53
2024/01/05 09:21:32;;;;;;;0.70;0.30;;;17.70;62.10;;;;;;5057929;28;45320;-53
2024/01/05 09:23:59;;;;;;;0.82;0.35;;;17.70;62.10;;;;;;5057909;28;45272;-53
2024/01/05 09:26:26;;;;;;;0.70;0.20;;;17.70;62.30;;;;;;5056553;28;45191;-53
2024/01/05 09:28:53;;;;;;;0.50;0.13;;;17.70;62.20;;;;;;5055465;28;46525;-53
2024/01/05 09:31:19;;;;;;;0.70;0.25;;;17.60;62.20;;;;;;5054496;28;45260;-53
2024/01/05 09:33:49;;;;;;;0.55;0.10;;;17.60;62.20;;;;;;5055620;28;45325;-53
2024/01/05 09:36:16;;;;;;;0.73;0.20;;;17.60;62.50;;;;;;5056024;28;45236;-53
2024/01/05 09:38:43;;;;;;;0.20;0.20;;;17.60;62.40;;;;;;5054715;28;46440;-53
2024/01/05 09:41:12;;;;;;;0.17;0.10;;;17.50;62.50;;;;;;5055713;28;45172;-53
2024/01/05 09:43:40;;;;;;;1.58;0.30;;;17.50;62.40;;;;;;5057266;28;45439;-53
2024/01/05 09:46:08;;;;;;;0.40;0.20;;;17.50;62.50;;;;;;5055489;28;45471;-53
2024/01/05 09:48:35;;;;;;;0.40;0.10;;;17.50;62.30;;;;;;5056089;28;45208;-53
2024/01/05 09:51:07;;;;;;;0.30;0.20;;;17.50;62.10;;;;;;5057751;28;46184;-53
2024/01/05 09:53:34;;;;;;;0.98;0.20;;;17.60;62.40;;;;;;5058507;28;45300;-53
2024/01/05 09:56:03;;;;;;;0.32;0.10;;;17.60;62.20;;;;;;5055525;28;45364;-53
2024/01/05 09:58:30;;;;;;;0.17;0.10;;;17.60;62.20;;;;;;5056405;28;46298;-53
2024/01/05 10:01:02;;;;;;;0.30;0.20;;;17.60;62.20;;;;;;5056572;28;45187;-53
2024/01/05 10:03:30;;;;;;;0.60;0.20;;;17.60;62.20;;;;;;5051925;28;45445;-53
2024/01/05 10:05:59;;;;;;;0.13;0.13;;;17.60;62.20;;;;;;5057629;28;45290;-53
2024/01/05 10:08:27;;;;;;;0.28;0.17;;;17.60;62.20;;;;;;5053344;28;45448;-53
2024/01/05 10:10:56;;;;;;;0.10;0.10;;;17.60;62.10;;;;;;5055877;28;44735;-53
2024/01/05 10:13:23;;;;;;;0.30;0.10;;;17.60;62.10;;;;;;5056326;28;45187;-53
2024/01/05 10:15:54;;;;;;;0.20;0.13;;;17.60;62.10;;;;;;5055662;28;45209;-53
2024/01/05 10:18:22;;;;;;;0.73;0.28;;;17.60;62.10;;;;;;5056498;28;47477;-53
2024/01/05 10:20:49;;;;;;;0.98;0.13;;;17.60;62.10;;;;;;5057216;28;45185;-53
2024/01/05 10:23:17;;;;;;;0.30;0.20;;;17.60;62.00;;;;;;5054879;28;45226;-53
2024/01/05 10:25:46;;;;;;;0.22;0.10;;;17.60;62.20;;;;;;5053801;28;45229;-53
2024/01/05 10:28:21;;;;;;;1.10;0.20;;;17.60;62.30;;;;;;5057358;28;45284;-53
2024/01/05 10:30:48;;;;;;;1.35;0.28;;;17.60;62.50;;;;;;5056091;28;45160;-53
2024/01/05 10:33:16;;;;;;;1.70;0.30;;;17.60;62.40;;;;;;5055322;28;45345;-53
2024/01/05 10:35:43;;;;;;;0.43;0.30;;;17.60;62.30;;;;;;5054781;28;45370;-53
2024/01/05 10:38:11;;;;;;;0.82;0.20;;;17.60;62.40;;;;;;5052139;28;47669;-53
2024/01/05 10:40:38;;;;;;;1.25;0.30;;;17.60;62.30;;;;;;5055009;28;45329;-53
2024/01/05 10:43:10;;;;;;;0.40;0.30;;;17.60;62.50;;;;;;5057065;28;45097;-53
2024/01/05 10:45:38;;;;;;;2.45;0.30;;;17.60;62.50;;;;;;5054697;28;45152;-53
2024/01/05 10:48:07;;;;;;;0.90;0.10;;;17.60;62.30;;;;;;5055806;28;46540;-53
2024/01/05 10:50:36;;;;;;;0.40;0.28;;;17.60;62.20;;;;;;5055921;28;45199;-53
2024/01/05 10:53:04;;;;;;;0.30;0.05;;;17.60;62.00;;;;;;5053101;28;45288;-53
2024/01/05 10:55:33;;;;;;;0.55;0.10;;;17.60;61.90;;;;;;5055945;28;45656;-53
2024/01/05 10:57:59;;;;;;;0.47;0.30;;;17.60;61.50;;;;;;5055535;28;45342;-53
2024/01/05 11:00:27;;;;;;;0.15;0.10;;;17.60;61.50;;;;;;5057468;28;45157;-53
2024/01/05 11:03:07;;;;;;;0.20;0.20;;;17.60;61.90;;;;;;5060650;28;45099;-53
2024/01/05 11:05:35;;;;;;;0.50;0.13;;;17.60;62.10;;;;;;5059638;28;46161;-53
2024/01/05 11:08:03;;;;;;;0.03;0.03;;;17.60;62.10;;;;;;5058009;28;46533;-53
2024/01/05 11:10:38;;;;;;;0.75;0.22;;;17.60;62.40;;;;;;5060110;28;45312;-52
2024/01/05 11:13:20;;;;;;;0.75;0.20;;;17.60;62.20;;;;;;5059209;28;45110;-53
2024/01/05 11:16:18;;;;;;;0.20;0.20;;;17.60;62.10;;;;;;5060963;28;45262;-53
2024/01/05 11:19:09;;;;;;;0.10;0.10;;;17.60;62.20;;;;;;5060519;28;46269;-53
2024/01/05 11:21:45;;;;;;;0.22;0.10;;;17.60;62.00;;;;;;5057441;28;45289;-53
2024/01/05 11:24:13;;;;;;;0.17;0.17;;;17.60;62.10;;;;;;5060481;28;45131;-53
2024/01/05 11:26:42;;;;;;;0.10;0.10;;;17.60;62.00;;;;;;5059062;28;44738;-53
2024/01/05 11:29:12;;;;;;;0.30;0.08;;;17.60;62.00;;;;;;5058738;28;47439;-53
2024/01/05 11:31:53;;;;;;;0.68;0.10;;;17.60;61.90;;;;;;5058153;28;45150;-53
2024/01/05 11:34:35;;;;;;;2.20;0.30;;;17.60;61.70;;;;;;5060083;28;45201;-53
2024/01/05 11:37:03;;;;;;;0.40;0.20;;;17.60;61.50;;;;;;5057032;28;45363;-53
2024/01/05 11:39:43;;;;;;;1.15;0.17;;;17.60;61.90;;;;;;5045954;28;46453;-53
2024/01/05 11:42:10;;;;;;;0.60;0.30;;;17.60;62.10;;;;;;5054758;28;45265;-53
2024/01/05 11:44:37;;;;;;;0.57;0.22;;;17.60;61.70;;;;;;5050739;28;45187;-53
2024/01/05 11:47:06;;;;;;;0.35;0.28;;;17.60;61.90;;;;;;5055219;28;45301;-53
2024/01/05 11:49:41;;;;;;;0.28;0.20;;;17.60;61.70;;;;;;5051755;28;46542;-53
2024/01/05 11:52:08;;;;;;;1.35;0.20;;;17.60;61.40;;;;;;5057168;28;45342;-53
2024/01/05 11:54:35;;;;;;;1.75;0.32;;;17.60;61.70;;;;;;5058991;28;45288;-53
2024/01/05 11:57:04;;;;;;;0.73;0.10;;;17.60;61.90;;;;;;5058459;28;45162;-53
2024/01/05 11:59:31;;;;;;;0.70;0.25;;;17.60;61.90;;;;;;5058345;28;45149;-53
2024/01/05 12:01:58;;;;;;;0.70;0.30;;;17.60;61.50;;;;;;5057799;28;45407;-53
2024/01/05 12:04:26;;;;;;;0.95;0.30;;;17.70;61.50;;;;;;5056509;28;45189;-53
2024/01/05 12:06:54;;;;;;;0.20;0.20;;;17.70;61.20;;;;;;5059384;28;45246;-53
2024/01/05 12:09:21;;;;;;;0.65;0.30;;;17.70;61.10;;;;;;5057204;28;47022;-53
2024/01/05 12:11:48;;;;;;;1.55;0.40;;;17.70;61.20;;;;;;5057022;28;44665;-53
2024/01/05 12:14:26;;;;;;;1.98;0.40;;;17.70;61.20;;;;;;5057440;28;45343;-53
2024/01/05 12:16:53;;;;;;;0.73;0.20;;;17.70;61.20;;;;;;5059698;28;45382;-53
2024/01/05 12:19:23;;;;;;;0.55;0.25;;;17.60;61.30;;;;;;5059378;28;47265;-53
2024/01/05 12:21:54;;;;;;;0.50;0.30;;;17.60;60.70;;;;;;5058291;28;45234;-53
2024/01/05 12:24:21;;;;;;;0.20;0.20;;;17.60;61.00;;;;;;5056091;28;45225;-53
2024/01/05 12:26:53;;;;;;;0.90;0.22;;;17.60;61.40;;;;;;5059574;28;45321;-53
2024/01/05 12:29:21;;;;;;;0.32;0.28;;;17.60;61.40;;;;;;5059447;28;45244;-53
2024/01/05 12:31:49;;;;;;;1.83;0.30;;;17.60;61.60;;;;;;5057230;28;45257;-53
2024/01/05 12:34:17;;;;;;;1.10;0.50;;;17.60;61.50;;;;;;5058076;28;45202;-53
2024/01/05 12:36:44;;;;;;;1.55;0.30;;;17.60;61.50;;;;;;5059389;28;44717;-53
2024/01/05 12:39:13;;;;;;;0.50;0.22;;;17.60;61.30;;;;;;5054574;28;45614;-53
2024/01/05 12:41:42;;;;;;;0.22;0.20;;;17.60;61.20;;;;;;5058341;28;45340;-52
2024/01/05 12:44:10;;;;;;;0.40;0.10;;;17.60;61.30;;;;;;5058805;28;45327;-52
2024/01/05 12:46:42;;;;;;;1.60;0.25;;;17.60;61.70;;;;;;5058136;28;45316;-53
2024/01/05 12:49:23;;;;;;;0.93;0.30;;;17.60;62.00;;;;;;5058526;28;47510;-53
2024/01/05 12:51:50;;;;;;;0.63;0.20;;;17.60;62.00;;;;;;5057962;28;45165;-53